sensor_id;sensor_type;location;lat;lon;timestamp;P1;durP1;ratioP1;P2;durP2;ratioP2
49852;SDS011;35751;48.072;11.688;2022-09-09T00:02:20;1.52;;;1.42;;
49852;SDS011;35751;48.072;11.688;2022-09-09T00:07:51;3.10;;;1.42;;
49852;SDS011;35751;48.072;11.688;2022-09-09T00:10:28;5.88;;;2.60;;
49852;SDS011;35751;48.072;11.688;2022-09-09T00:15:43;5.45;;;1.70;;
49852;SDS011;35751;48.072;11.688;2022-09-09T00:18:22;3.95;;;1.95;;
49852;SDS011;35751;48.072;11.688;2022-09-09T00:21:10;4.10;;;1.52;;
49852;SDS011;35751;48.072;11.688;2022-09-09T00:23:43;3.95;;;1.60;;
49852;SDS011;35751;48.072;11.688;2022-09-09T00:28:55;3.17;;;1.60;;
49852;SDS011;35751;48.072;11.688;2022-09-09T00:31:28;2.17;;;1.92;;
49852;SDS011;35751;48.072;11.688;2022-09-09T00:33:55;2.45;;;1.60;;
49852;SDS011;35751;48.072;11.688;2022-09-09T00:36:24;2.08;;;1.52;;
49852;SDS011;35751;48.072;11.688;2022-09-09T00:38:52;4.95;;;1.98;;
49852;SDS011;35751;48.072;11.688;2022-09-09T00:41:22;3.13;;;1.80;;
49852;SDS011;35751;48.072;11.688;2022-09-09T00:43:58;2.65;;;1.65;;
49852;SDS011;35751;48.072;11.688;2022-09-09T00:57:02;3.17;;;1.65;;
49852;SDS011;35751;48.072;11.688;2022-09-09T00:59:35;1.80;;;1.35;;
49852;SDS011;35751;48.072;11.688;2022-09-09T01:02:13;3.03;;;1.70;;
49852;SDS011;35751;48.072;11.688;2022-09-09T01:05:04;2.25;;;1.35;;
49852;SDS011;35751;48.072;11.688;2022-09-09T01:07:35;2.42;;;1.65;;
49852;SDS011;35751;48.072;11.688;2022-09-09T01:10:03;1.75;;;1.65;;
49852;SDS011;35751;48.072;11.688;2022-09-09T01:12:34;1.98;;;1.83;;
49852;SDS011;35751;48.072;11.688;2022-09-09T01:15:10;2.28;;;1.33;;
49852;SDS011;35751;48.072;11.688;2022-09-09T01:28:29;4.47;;;2.00;;
49852;SDS011;35751;48.072;11.688;2022-09-09T01:30:54;3.13;;;1.50;;
49852;SDS011;35751;48.072;11.688;2022-09-09T01:33:21;1.88;;;1.42;;
49852;SDS011;35751;48.072;11.688;2022-09-09T01:35:50;2.05;;;1.48;;
49852;SDS011;35751;48.072;11.688;2022-09-09T01:38:19;2.13;;;1.48;;
49852;SDS011;35751;48.072;11.688;2022-09-09T01:40:44;5.07;;;1.92;;
49852;SDS011;35751;48.072;11.688;2022-09-09T01:43:10;2.75;;;1.65;;
49852;SDS011;35751;48.072;11.688;2022-09-09T01:45:35;2.90;;;1.58;;
49852;SDS011;35751;48.072;11.688;2022-09-09T01:48:02;2.75;;;1.98;;
49852;SDS011;35751;48.072;11.688;2022-09-09T01:50:28;2.78;;;1.38;;
49852;SDS011;35751;48.072;11.688;2022-09-09T01:52:54;4.20;;;1.60;;
49852;SDS011;35751;48.072;11.688;2022-09-09T01:55:28;1.98;;;1.77;;
49852;SDS011;35751;48.072;11.688;2022-09-09T01:57:59;2.88;;;1.85;;
49852;SDS011;35751;48.072;11.688;2022-09-09T02:00:28;3.83;;;1.75;;
49852;SDS011;35751;48.072;11.688;2022-09-09T02:08:59;2.22;;;1.65;;
49852;SDS011;35751;48.072;11.688;2022-09-09T02:11:11;3.22;;;1.70;;
49852;SDS011;35751;48.072;11.688;2022-09-09T02:13:38;3.47;;;1.45;;
49852;SDS011;35751;48.072;11.688;2022-09-09T02:16:08;3.20;;;1.60;;
49852;SDS011;35751;48.072;11.688;2022-09-09T02:18:58;5.20;;;1.65;;
49852;SDS011;35751;48.072;11.688;2022-09-09T02:21:27;4.00;;;1.63;;
49852;SDS011;35751;48.072;11.688;2022-09-09T02:23:54;3.33;;;1.60;;
49852;SDS011;35751;48.072;11.688;2022-09-09T02:26:22;5.95;;;1.60;;
49852;SDS011;35751;48.072;11.688;2022-09-09T02:28:50;2.67;;;1.40;;
49852;SDS011;35751;48.072;11.688;2022-09-09T02:31:19;2.58;;;1.60;;
49852;SDS011;35751;48.072;11.688;2022-09-09T02:33:47;2.60;;;1.40;;
49852;SDS011;35751;48.072;11.688;2022-09-09T02:36:17;2.33;;;1.35;;
49852;SDS011;35751;48.072;11.688;2022-09-09T02:38:47;6.78;;;1.50;;
49852;SDS011;35751;48.072;11.688;2022-09-09T02:41:20;2.20;;;1.38;;
49852;SDS011;35751;48.072;11.688;2022-09-09T02:43:58;2.47;;;1.20;;
49852;SDS011;35751;48.072;11.688;2022-09-09T02:49:28;2.67;;;1.27;;
49852;SDS011;35751;48.072;11.688;2022-09-09T02:52:02;3.08;;;1.55;;
49852;SDS011;35751;48.072;11.688;2022-09-09T02:54:32;3.25;;;1.75;;
49852;SDS011;35751;48.072;11.688;2022-09-09T02:57:01;3.33;;;1.35;;
49852;SDS011;35751;48.072;11.688;2022-09-09T02:59:31;1.98;;;1.58;;
49852;SDS011;35751;48.072;11.688;2022-09-09T03:01:57;1.35;;;1.20;;
49852;SDS011;35751;48.072;11.688;2022-09-09T03:04:22;2.40;;;1.30;;
49852;SDS011;35751;48.072;11.688;2022-09-09T03:06:49;4.78;;;1.80;;
49852;SDS011;35751;48.072;11.688;2022-09-09T03:09:14;2.10;;;1.48;;
49852;SDS011;35751;48.072;11.688;2022-09-09T03:11:40;2.50;;;1.45;;
49852;SDS011;35751;48.072;11.688;2022-09-09T03:14:05;1.60;;;1.40;;
49852;SDS011;35751;48.072;11.688;2022-09-09T03:16:31;2.30;;;1.63;;
49852;SDS011;35751;48.072;11.688;2022-09-09T03:18:58;1.80;;;1.35;;
49852;SDS011;35751;48.072;11.688;2022-09-09T03:21:23;2.50;;;1.40;;
49852;SDS011;35751;48.072;11.688;2022-09-09T03:23:49;2.33;;;1.40;;
49852;SDS011;35751;48.072;11.688;2022-09-09T03:26:15;1.25;;;1.15;;
49852;SDS011;35751;48.072;11.688;2022-09-09T03:28:41;1.98;;;1.40;;
49852;SDS011;35751;48.072;11.688;2022-09-09T03:31:06;1.95;;;1.48;;
49852;SDS011;35751;48.072;11.688;2022-09-09T03:33:35;1.67;;;1.58;;
49852;SDS011;35751;48.072;11.688;2022-09-09T03:36:02;1.90;;;1.25;;
49852;SDS011;35751;48.072;11.688;2022-09-09T03:38:27;1.05;;;1.00;;
49852;SDS011;35751;48.072;11.688;2022-09-09T03:40:54;2.13;;;1.63;;
49852;SDS011;35751;48.072;11.688;2022-09-09T03:43:24;1.98;;;1.40;;
49852;SDS011;35751;48.072;11.688;2022-09-09T03:45:50;1.85;;;1.65;;
49852;SDS011;35751;48.072;11.688;2022-09-09T03:48:16;3.65;;;1.50;;
49852;SDS011;35751;48.072;11.688;2022-09-09T03:50:48;1.90;;;1.42;;
49852;SDS011;35751;48.072;11.688;2022-09-09T03:53:15;4.25;;;2.00;;
49852;SDS011;35751;48.072;11.688;2022-09-09T03:55:44;2.22;;;1.60;;
49852;SDS011;35751;48.072;11.688;2022-09-09T03:58:11;5.45;;;1.50;;
49852;SDS011;35751;48.072;11.688;2022-09-09T04:00:37;1.65;;;1.55;;
49852;SDS011;35751;48.072;11.688;2022-09-09T04:03:08;2.78;;;1.30;;
49852;SDS011;35751;48.072;11.688;2022-09-09T04:05:34;1.95;;;1.23;;
49852;SDS011;35751;48.072;11.688;2022-09-09T04:07:59;2.67;;;1.30;;
49852;SDS011;35751;48.072;11.688;2022-09-09T04:10:25;4.70;;;1.30;;
49852;SDS011;35751;48.072;11.688;2022-09-09T04:12:50;2.10;;;1.30;;
49852;SDS011;35751;48.072;11.688;2022-09-09T04:15:15;6.70;;;2.28;;
49852;SDS011;35751;48.072;11.688;2022-09-09T04:17:43;2.00;;;1.40;;
49852;SDS011;35751;48.072;11.688;2022-09-09T04:20:08;4.93;;;1.60;;
49852;SDS011;35751;48.072;11.688;2022-09-09T04:22:36;2.08;;;1.50;;
49852;SDS011;35751;48.072;11.688;2022-09-09T04:25:03;2.35;;;1.50;;
49852;SDS011;35751;48.072;11.688;2022-09-09T04:27:30;2.13;;;1.60;;
49852;SDS011;35751;48.072;11.688;2022-09-09T04:29:55;4.68;;;1.60;;
49852;SDS011;35751;48.072;11.688;2022-09-09T04:32:21;1.75;;;1.65;;
49852;SDS011;35751;48.072;11.688;2022-09-09T04:34:46;3.15;;;1.83;;
49852;SDS011;35751;48.072;11.688;2022-09-09T04:37:13;3.22;;;1.50;;
49852;SDS011;35751;48.072;11.688;2022-09-09T04:39:39;2.53;;;1.55;;
49852;SDS011;35751;48.072;11.688;2022-09-09T04:42:04;2.08;;;1.67;;
49852;SDS011;35751;48.072;11.688;2022-09-09T04:44:29;2.70;;;1.67;;
49852;SDS011;35751;48.072;11.688;2022-09-09T04:46:55;3.67;;;1.40;;
49852;SDS011;35751;48.072;11.688;2022-09-09T04:49:21;2.08;;;1.52;;
49852;SDS011;35751;48.072;11.688;2022-09-09T04:51:48;2.53;;;1.80;;
49852;SDS011;35751;48.072;11.688;2022-09-09T04:54:14;2.33;;;1.45;;
49852;SDS011;35751;48.072;11.688;2022-09-09T04:56:39;2.63;;;1.30;;
49852;SDS011;35751;48.072;11.688;2022-09-09T04:59:06;4.70;;;1.75;;
49852;SDS011;35751;48.072;11.688;2022-09-09T05:01:31;5.90;;;1.75;;
49852;SDS011;35751;48.072;11.688;2022-09-09T05:03:57;4.70;;;1.85;;
49852;SDS011;35751;48.072;11.688;2022-09-09T05:06:22;1.92;;;1.60;;
49852;SDS011;35751;48.072;11.688;2022-09-09T05:08:48;3.88;;;1.55;;
49852;SDS011;35751;48.072;11.688;2022-09-09T05:11:28;1.92;;;1.70;;
49852;SDS011;35751;48.072;11.688;2022-09-09T05:13:56;3.20;;;1.85;;
49852;SDS011;35751;48.072;11.688;2022-09-09T05:16:21;7.45;;;2.00;;
49852;SDS011;35751;48.072;11.688;2022-09-09T05:18:47;2.97;;;1.65;;
49852;SDS011;35751;48.072;11.688;2022-09-09T05:21:15;2.50;;;2.03;;
49852;SDS011;35751;48.072;11.688;2022-09-09T05:23:41;3.60;;;1.35;;
49852;SDS011;35751;48.072;11.688;2022-09-09T05:26:08;2.45;;;1.45;;
49852;SDS011;35751;48.072;11.688;2022-09-09T05:28:36;1.92;;;1.40;;
49852;SDS011;35751;48.072;11.688;2022-09-09T05:31:11;2.75;;;1.60;;
49852;SDS011;35751;48.072;11.688;2022-09-09T05:33:37;4.75;;;1.48;;
49852;SDS011;35751;48.072;11.688;2022-09-09T05:38:36;3.53;;;1.65;;
49852;SDS011;35751;48.072;11.688;2022-09-09T05:41:02;3.33;;;1.58;;
49852;SDS011;35751;48.072;11.688;2022-09-09T05:43:28;2.95;;;1.42;;
49852;SDS011;35751;48.072;11.688;2022-09-09T05:48:36;4.93;;;1.75;;
49852;SDS011;35751;48.072;11.688;2022-09-09T05:51:02;3.65;;;1.75;;
49852;SDS011;35751;48.072;11.688;2022-09-09T05:53:28;4.22;;;1.30;;
49852;SDS011;35751;48.072;11.688;2022-09-09T05:56:07;3.13;;;1.63;;
49852;SDS011;35751;48.072;11.688;2022-09-09T05:58:37;2.47;;;2.00;;
49852;SDS011;35751;48.072;11.688;2022-09-09T06:01:07;2.78;;;1.63;;
49852;SDS011;35751;48.072;11.688;2022-09-09T06:03:35;6.93;;;2.28;;
49852;SDS011;35751;48.072;11.688;2022-09-09T06:06:05;3.00;;;1.30;;
49852;SDS011;35751;48.072;11.688;2022-09-09T06:08:36;2.63;;;1.52;;
49852;SDS011;35751;48.072;11.688;2022-09-09T06:11:04;2.38;;;1.40;;
49852;SDS011;35751;48.072;11.688;2022-09-09T06:13:29;4.35;;;1.60;;
49852;SDS011;35751;48.072;11.688;2022-09-09T06:15:55;3.00;;;1.60;;
49852;SDS011;35751;48.072;11.688;2022-09-09T06:18:21;2.40;;;1.45;;
49852;SDS011;35751;48.072;11.688;2022-09-09T06:21:08;6.50;;;1.90;;
49852;SDS011;35751;48.072;11.688;2022-09-09T06:23:33;4.80;;;1.50;;
49852;SDS011;35751;48.072;11.688;2022-09-09T06:26:10;2.78;;;1.42;;
49852;SDS011;35751;48.072;11.688;2022-09-09T06:28:37;4.95;;;1.50;;
49852;SDS011;35751;48.072;11.688;2022-09-09T06:31:04;2.65;;;1.17;;
49852;SDS011;35751;48.072;11.688;2022-09-09T06:33:31;2.55;;;1.83;;
49852;SDS011;35751;48.072;11.688;2022-09-09T06:35:59;2.80;;;1.55;;
49852;SDS011;35751;48.072;11.688;2022-09-09T06:38:25;5.15;;;1.92;;
49852;SDS011;35751;48.072;11.688;2022-09-09T06:40:54;3.20;;;1.40;;
49852;SDS011;35751;48.072;11.688;2022-09-09T06:43:21;5.43;;;1.98;;
49852;SDS011;35751;48.072;11.688;2022-09-09T06:45:56;6.65;;;1.92;;
49852;SDS011;35751;48.072;11.688;2022-09-09T06:48:23;4.38;;;1.42;;
49852;SDS011;35751;48.072;11.688;2022-09-09T06:50:50;3.45;;;1.23;;
49852;SDS011;35751;48.072;11.688;2022-09-09T06:53:28;3.65;;;1.20;;
49852;SDS011;35751;48.072;11.688;2022-09-09T06:55:54;4.53;;;1.60;;
49852;SDS011;35751;48.072;11.688;2022-09-09T06:58:19;3.42;;;1.45;;
49852;SDS011;35751;48.072;11.688;2022-09-09T07:00:46;2.85;;;1.20;;
49852;SDS011;35751;48.072;11.688;2022-09-09T07:03:12;1.55;;;1.45;;
49852;SDS011;35751;48.072;11.688;2022-09-09T07:05:38;2.60;;;1.75;;
49852;SDS011;35751;48.072;11.688;2022-09-09T07:08:03;2.35;;;1.30;;
49852;SDS011;35751;48.072;11.688;2022-09-09T07:10:28;3.70;;;2.55;;
49852;SDS011;35751;48.072;11.688;2022-09-09T07:12:54;4.38;;;2.30;;
49852;SDS011;35751;48.072;11.688;2022-09-09T07:15:19;6.07;;;1.50;;
49852;SDS011;35751;48.072;11.688;2022-09-09T07:17:47;2.45;;;1.75;;
49852;SDS011;35751;48.072;11.688;2022-09-09T07:20:13;2.35;;;1.52;;
49852;SDS011;35751;48.072;11.688;2022-09-09T07:22:39;4.00;;;1.63;;
49852;SDS011;35751;48.072;11.688;2022-09-09T07:25:05;3.65;;;1.20;;
49852;SDS011;35751;48.072;11.688;2022-09-09T07:27:31;1.92;;;1.70;;
49852;SDS011;35751;48.072;11.688;2022-09-09T07:29:56;1.75;;;1.10;;
49852;SDS011;35751;48.072;11.688;2022-09-09T07:32:22;2.40;;;1.95;;
49852;SDS011;35751;48.072;11.688;2022-09-09T07:34:48;3.67;;;1.77;;
49852;SDS011;35751;48.072;11.688;2022-09-09T07:37:15;3.63;;;1.50;;
49852;SDS011;35751;48.072;11.688;2022-09-09T07:39:40;1.52;;;1.27;;
49852;SDS011;35751;48.072;11.688;2022-09-09T07:42:07;5.10;;;1.55;;
49852;SDS011;35751;48.072;11.688;2022-09-09T07:44:34;0.90;;;0.90;;
49852;SDS011;35751;48.072;11.688;2022-09-09T07:47:01;2.80;;;1.08;;
49852;SDS011;35751;48.072;11.688;2022-09-09T07:49:27;1.33;;;1.17;;
49852;SDS011;35751;48.072;11.688;2022-09-09T07:51:53;2.83;;;1.08;;
49852;SDS011;35751;48.072;11.688;2022-09-09T07:54:18;3.13;;;1.48;;
49852;SDS011;35751;48.072;11.688;2022-09-09T07:56:48;2.03;;;1.10;;
49852;SDS011;35751;48.072;11.688;2022-09-09T07:59:14;5.25;;;1.17;;
49852;SDS011;35751;48.072;11.688;2022-09-09T08:01:41;1.00;;;0.77;;
49852;SDS011;35751;48.072;11.688;2022-09-09T08:04:12;2.15;;;0.90;;
49852;SDS011;35751;48.072;11.688;2022-09-09T08:06:46;1.23;;;0.85;;
49852;SDS011;35751;48.072;11.688;2022-09-09T08:09:13;2.45;;;1.00;;
49852;SDS011;35751;48.072;11.688;2022-09-09T08:11:40;0.95;;;0.73;;
49852;SDS011;35751;48.072;11.688;2022-09-09T08:14:06;1.45;;;1.13;;
49852;SDS011;35751;48.072;11.688;2022-09-09T08:16:33;1.80;;;1.10;;
49852;SDS011;35751;48.072;11.688;2022-09-09T08:19:02;1.27;;;0.82;;
49852;SDS011;35751;48.072;11.688;2022-09-09T08:21:28;2.22;;;0.93;;
49852;SDS011;35751;48.072;11.688;2022-09-09T08:23:55;3.90;;;1.25;;
49852;SDS011;35751;48.072;11.688;2022-09-09T08:26:23;1.85;;;1.40;;
49852;SDS011;35751;48.072;11.688;2022-09-09T08:28:56;1.52;;;1.02;;
49852;SDS011;35751;48.072;11.688;2022-09-09T08:31:27;1.20;;;1.02;;
49852;SDS011;35751;48.072;11.688;2022-09-09T08:33:53;2.75;;;1.02;;
49852;SDS011;35751;48.072;11.688;2022-09-09T08:36:20;2.47;;;1.13;;
49852;SDS011;35751;48.072;11.688;2022-09-09T08:38:50;5.35;;;1.30;;
49852;SDS011;35751;48.072;11.688;2022-09-09T08:44:10;1.75;;;1.20;;
49852;SDS011;35751;48.072;11.688;2022-09-09T08:58:25;2.83;;;1.70;;
49852;SDS011;35751;48.072;11.688;2022-09-09T09:03:30;3.42;;;1.58;;
49852;SDS011;35751;48.072;11.688;2022-09-09T09:08:56;4.57;;;1.42;;
49852;SDS011;35751;48.072;11.688;2022-09-09T09:11:37;4.07;;;1.92;;
49852;SDS011;35751;48.072;11.688;2022-09-09T09:14:25;3.92;;;1.27;;
49852;SDS011;35751;48.072;11.688;2022-09-09T09:19:22;2.00;;;1.40;;
49852;SDS011;35751;48.072;11.688;2022-09-09T09:24:49;1.70;;;1.33;;
49852;SDS011;35751;48.072;11.688;2022-09-09T09:27:42;4.32;;;1.48;;
49852;SDS011;35751;48.072;11.688;2022-09-09T09:32:54;4.60;;;1.55;;
49852;SDS011;35751;48.072;11.688;2022-09-09T09:35:24;3.55;;;1.40;;
49852;SDS011;35751;48.072;11.688;2022-09-09T09:37:50;1.63;;;1.30;;
49852;SDS011;35751;48.072;11.688;2022-09-09T09:40:17;2.95;;;1.20;;
49852;SDS011;35751;48.072;11.688;2022-09-09T09:45:34;3.60;;;1.10;;
49852;SDS011;35751;48.072;11.688;2022-09-09T09:48:06;1.85;;;1.17;;
49852;SDS011;35751;48.072;11.688;2022-09-09T09:50:34;4.00;;;1.20;;
49852;SDS011;35751;48.072;11.688;2022-09-09T09:53:03;4.95;;;1.77;;
49852;SDS011;35751;48.072;11.688;2022-09-09T09:55:32;2.55;;;1.15;;
49852;SDS011;35751;48.072;11.688;2022-09-09T09:58:03;0.98;;;0.93;;
49852;SDS011;35751;48.072;11.688;2022-09-09T10:00:29;1.73;;;1.30;;
49852;SDS011;35751;48.072;11.688;2022-09-09T10:02:55;2.40;;;0.98;;
49852;SDS011;35751;48.072;11.688;2022-09-09T10:05:28;2.97;;;1.20;;
49852;SDS011;35751;48.072;11.688;2022-09-09T10:08:02;2.55;;;1.13;;
49852;SDS011;35751;48.072;11.688;2022-09-09T10:10:50;1.10;;;1.00;;
49852;SDS011;35751;48.072;11.688;2022-09-09T10:15:58;2.15;;;1.10;;
49852;SDS011;35751;48.072;11.688;2022-09-09T10:40:34;1.37;;;1.00;;
49852;SDS011;35751;48.072;11.688;2022-09-09T10:54:17;2.90;;;0.75;;
49852;SDS011;35751;48.072;11.688;2022-09-09T10:56:49;0.98;;;0.82;;
49852;SDS011;35751;48.072;11.688;2022-09-09T10:59:20;2.38;;;0.80;;
49852;SDS011;35751;48.072;11.688;2022-09-09T11:01:59;4.03;;;1.00;;
49852;SDS011;35751;48.072;11.688;2022-09-09T11:04:28;0.77;;;0.77;;
49852;SDS011;35751;48.072;11.688;2022-09-09T11:06:57;3.00;;;1.67;;
49852;SDS011;35751;48.072;11.688;2022-09-09T11:09:31;2.35;;;0.80;;
49852;SDS011;35751;48.072;11.688;2022-09-09T11:11:58;4.18;;;0.95;;
49852;SDS011;35751;48.072;11.688;2022-09-09T11:14:37;0.98;;;0.70;;
49852;SDS011;35751;48.072;11.688;2022-09-09T11:17:11;3.05;;;0.82;;
49852;SDS011;35751;48.072;11.688;2022-09-09T11:19:40;2.55;;;1.65;;
49852;SDS011;35751;48.072;11.688;2022-09-09T11:22:14;3.88;;;2.22;;
49852;SDS011;35751;48.072;11.688;2022-09-09T11:24:45;1.27;;;1.17;;
49852;SDS011;35751;48.072;11.688;2022-09-09T11:27:15;1.38;;;1.27;;
49852;SDS011;35751;48.072;11.688;2022-09-09T11:40:28;1.17;;;0.60;;
49852;SDS011;35751;48.072;11.688;2022-09-09T11:43:03;0.45;;;0.45;;
49852;SDS011;35751;48.072;11.688;2022-09-09T11:45:30;1.23;;;0.60;;
49852;SDS011;35751;48.072;11.688;2022-09-09T11:48:00;0.70;;;0.70;;
49852;SDS011;35751;48.072;11.688;2022-09-09T11:53:02;1.30;;;0.75;;
49852;SDS011;35751;48.072;11.688;2022-09-09T11:55:30;3.45;;;0.73;;
49852;SDS011;35751;48.072;11.688;2022-09-09T11:58:03;1.08;;;0.70;;
49852;SDS011;35751;48.072;11.688;2022-09-09T12:00:40;0.60;;;0.45;;
49852;SDS011;35751;48.072;11.688;2022-09-09T12:08:56;1.40;;;0.63;;
49852;SDS011;35751;48.072;11.688;2022-09-09T12:11:27;0.77;;;0.60;;
49852;SDS011;35751;48.072;11.688;2022-09-09T12:13:54;4.18;;;0.73;;
49852;SDS011;35751;48.072;11.688;2022-09-09T12:16:31;2.35;;;0.70;;
49852;SDS011;35751;48.072;11.688;2022-09-09T12:19:23;0.63;;;0.50;;
49852;SDS011;35751;48.072;11.688;2022-09-09T12:21:58;2.00;;;0.60;;
49852;SDS011;35751;48.072;11.688;2022-09-09T12:26:58;4.00;;;0.75;;
49852;SDS011;35751;48.072;11.688;2022-09-09T12:29:47;1.58;;;0.80;;
49852;SDS011;35751;48.072;11.688;2022-09-09T12:32:36;0.98;;;0.90;;
49852;SDS011;35751;48.072;11.688;2022-09-09T12:35:03;1.55;;;0.70;;
49852;SDS011;35751;48.072;11.688;2022-09-09T12:37:35;0.70;;;0.70;;
49852;SDS011;35751;48.072;11.688;2022-09-09T12:42:29;1.73;;;0.98;;
49852;SDS011;35751;48.072;11.688;2022-09-09T12:44:55;0.68;;;0.57;;
49852;SDS011;35751;48.072;11.688;2022-09-09T12:50:14;3.30;;;0.75;;
49852;SDS011;35751;48.072;11.688;2022-09-09T12:52:41;0.47;;;0.47;;
49852;SDS011;35751;48.072;11.688;2022-09-09T12:55:07;2.40;;;0.73;;
49852;SDS011;35751;48.072;11.688;2022-09-09T12:57:36;0.65;;;0.40;;
49852;SDS011;35751;48.072;11.688;2022-09-09T13:00:07;1.88;;;0.52;;
49852;SDS011;35751;48.072;11.688;2022-09-09T13:02:45;0.80;;;0.40;;
49852;SDS011;35751;48.072;11.688;2022-09-09T13:05:16;0.50;;;0.50;;
49852;SDS011;35751;48.072;11.688;2022-09-09T13:07:45;1.10;;;0.60;;
49852;SDS011;35751;48.072;11.688;2022-09-09T13:10:11;0.57;;;0.55;;
49852;SDS011;35751;48.072;11.688;2022-09-09T13:12:37;0.70;;;0.63;;
49852;SDS011;35751;48.072;11.688;2022-09-09T13:15:03;0.75;;;0.75;;
49852;SDS011;35751;48.072;11.688;2022-09-09T13:17:28;1.85;;;0.40;;
49852;SDS011;35751;48.072;11.688;2022-09-09T13:19:54;1.65;;;0.57;;
49852;SDS011;35751;48.072;11.688;2022-09-09T13:25:00;0.55;;;0.50;;
49852;SDS011;35751;48.072;11.688;2022-09-09T13:27:30;1.10;;;0.70;;
49852;SDS011;35751;48.072;11.688;2022-09-09T13:29:58;1.58;;;0.50;;
49852;SDS011;35751;48.072;11.688;2022-09-09T13:32:24;0.70;;;0.50;;
49852;SDS011;35751;48.072;11.688;2022-09-09T13:34:53;0.38;;;0.38;;
49852;SDS011;35751;48.072;11.688;2022-09-09T13:37:22;1.42;;;0.80;;
49852;SDS011;35751;48.072;11.688;2022-09-09T13:39:52;1.42;;;0.70;;
49852;SDS011;35751;48.072;11.688;2022-09-09T13:42:21;1.02;;;0.90;;
49852;SDS011;35751;48.072;11.688;2022-09-09T13:44:50;1.38;;;0.75;;
49852;SDS011;35751;48.072;11.688;2022-09-09T13:47:19;3.58;;;0.80;;
49852;SDS011;35751;48.072;11.688;2022-09-09T13:49:46;0.90;;;0.70;;
49852;SDS011;35751;48.072;11.688;2022-09-09T13:52:12;1.88;;;0.80;;
49852;SDS011;35751;48.072;11.688;2022-09-09T13:54:41;0.82;;;0.80;;
49852;SDS011;35751;48.072;11.688;2022-09-09T13:57:14;0.65;;;0.65;;
49852;SDS011;35751;48.072;11.688;2022-09-09T13:59:42;0.88;;;0.70;;
49852;SDS011;35751;48.072;11.688;2022-09-09T14:02:07;1.88;;;0.68;;
49852;SDS011;35751;48.072;11.688;2022-09-09T14:04:33;0.77;;;0.60;;
49852;SDS011;35751;48.072;11.688;2022-09-09T14:07:00;1.63;;;0.90;;
49852;SDS011;35751;48.072;11.688;2022-09-09T14:09:26;1.95;;;0.90;;
49852;SDS011;35751;48.072;11.688;2022-09-09T14:11:51;1.13;;;0.60;;
49852;SDS011;35751;48.072;11.688;2022-09-09T14:14:16;0.60;;;0.57;;
49852;SDS011;35751;48.072;11.688;2022-09-09T14:16:42;1.20;;;0.88;;
49852;SDS011;35751;48.072;11.688;2022-09-09T14:19:08;0.57;;;0.57;;
49852;SDS011;35751;48.072;11.688;2022-09-09T14:21:34;1.17;;;0.90;;
49852;SDS011;35751;48.072;11.688;2022-09-09T14:23:59;0.70;;;0.60;;
49852;SDS011;35751;48.072;11.688;2022-09-09T14:26:24;0.60;;;0.60;;
49852;SDS011;35751;48.072;11.688;2022-09-09T14:28:51;0.85;;;0.77;;
49852;SDS011;35751;48.072;11.688;2022-09-09T14:31:16;0.68;;;0.68;;
49852;SDS011;35751;48.072;11.688;2022-09-09T14:33:42;1.15;;;0.60;;
49852;SDS011;35751;48.072;11.688;2022-09-09T14:36:08;1.55;;;0.70;;
49852;SDS011;35751;48.072;11.688;2022-09-09T14:38:35;3.03;;;0.70;;
49852;SDS011;35751;48.072;11.688;2022-09-09T14:41:15;0.73;;;0.60;;
49852;SDS011;35751;48.072;11.688;2022-09-09T14:43:44;3.38;;;0.93;;
49852;SDS011;35751;48.072;11.688;2022-09-09T14:46:11;2.50;;;0.80;;
49852;SDS011;35751;48.072;11.688;2022-09-09T14:48:38;1.80;;;0.70;;
49852;SDS011;35751;48.072;11.688;2022-09-09T14:51:11;2.28;;;0.73;;
49852;SDS011;35751;48.072;11.688;2022-09-09T14:53:38;2.00;;;0.70;;
49852;SDS011;35751;48.072;11.688;2022-09-09T14:56:08;2.90;;;0.60;;
49852;SDS011;35751;48.072;11.688;2022-09-09T14:58:35;0.60;;;0.60;;
49852;SDS011;35751;48.072;11.688;2022-09-09T15:01:06;1.83;;;0.50;;
49852;SDS011;35751;48.072;11.688;2022-09-09T15:03:35;2.83;;;0.73;;
49852;SDS011;35751;48.072;11.688;2022-09-09T15:06:08;1.65;;;0.57;;
49852;SDS011;35751;48.072;11.688;2022-09-09T15:08:38;2.53;;;0.82;;
49852;SDS011;35751;48.072;11.688;2022-09-09T15:11:05;0.73;;;0.68;;
49852;SDS011;35751;48.072;11.688;2022-09-09T15:13:34;0.88;;;0.75;;
49852;SDS011;35751;48.072;11.688;2022-09-09T15:16:07;0.65;;;0.60;;
49852;SDS011;35751;48.072;11.688;2022-09-09T15:18:37;1.40;;;0.70;;
49852;SDS011;35751;48.072;11.688;2022-09-09T15:21:07;1.75;;;0.98;;
49852;SDS011;35751;48.072;11.688;2022-09-09T15:23:34;0.70;;;0.70;;
49852;SDS011;35751;48.072;11.688;2022-09-09T15:26:00;0.80;;;0.52;;
49852;SDS011;35751;48.072;11.688;2022-09-09T15:28:26;1.60;;;0.43;;
49852;SDS011;35751;48.072;11.688;2022-09-09T15:30:52;2.80;;;0.70;;
49852;SDS011;35751;48.072;11.688;2022-09-09T15:33:18;3.17;;;0.95;;
49852;SDS011;35751;48.072;11.688;2022-09-09T15:35:44;2.40;;;0.80;;
49852;SDS011;35751;48.072;11.688;2022-09-09T15:38:10;1.48;;;0.90;;
49852;SDS011;35751;48.072;11.688;2022-09-09T15:40:38;1.77;;;0.82;;
49852;SDS011;35751;48.072;11.688;2022-09-09T15:43:06;4.43;;;1.02;;
49852;SDS011;35751;48.072;11.688;2022-09-09T15:45:32;2.30;;;0.85;;
49852;SDS011;35751;48.072;11.688;2022-09-09T15:47:59;2.33;;;0.98;;
49852;SDS011;35751;48.072;11.688;2022-09-09T15:50:25;0.50;;;0.50;;
49852;SDS011;35751;48.072;11.688;2022-09-09T15:52:51;1.05;;;0.73;;
49852;SDS011;35751;48.072;11.688;2022-09-09T15:55:17;2.75;;;0.73;;
49852;SDS011;35751;48.072;11.688;2022-09-09T15:57:43;1.67;;;1.15;;
49852;SDS011;35751;48.072;11.688;2022-09-09T16:00:08;2.85;;;1.00;;
49852;SDS011;35751;48.072;11.688;2022-09-09T16:02:37;2.85;;;0.70;;
49852;SDS011;35751;48.072;11.688;2022-09-09T16:05:02;3.10;;;1.15;;
49852;SDS011;35751;48.072;11.688;2022-09-09T16:07:28;5.13;;;1.30;;
49852;SDS011;35751;48.072;11.688;2022-09-09T16:09:53;1.70;;;0.80;;
49852;SDS011;35751;48.072;11.688;2022-09-09T16:12:19;1.90;;;0.80;;
49852;SDS011;35751;48.072;11.688;2022-09-09T16:14:44;0.70;;;0.70;;
49852;SDS011;35751;48.072;11.688;2022-09-09T16:17:10;12.70;;;2.88;;
49852;SDS011;35751;48.072;11.688;2022-09-09T16:19:36;1.00;;;0.68;;
49852;SDS011;35751;48.072;11.688;2022-09-09T16:22:01;1.77;;;0.90;;
49852;SDS011;35751;48.072;11.688;2022-09-09T16:24:27;1.55;;;0.80;;
49852;SDS011;35751;48.072;11.688;2022-09-09T16:26:53;1.00;;;0.73;;
49852;SDS011;35751;48.072;11.688;2022-09-09T16:29:19;2.13;;;0.70;;
49852;SDS011;35751;48.072;11.688;2022-09-09T16:31:47;1.25;;;0.90;;
49852;SDS011;35751;48.072;11.688;2022-09-09T16:34:13;1.95;;;0.90;;
49852;SDS011;35751;48.072;11.688;2022-09-09T16:36:40;1.33;;;0.88;;
49852;SDS011;35751;48.072;11.688;2022-09-09T16:39:07;1.13;;;0.95;;
49852;SDS011;35751;48.072;11.688;2022-09-09T16:41:36;1.05;;;0.68;;
49852;SDS011;35751;48.072;11.688;2022-09-09T16:44:04;1.40;;;1.00;;
49852;SDS011;35751;48.072;11.688;2022-09-09T16:46:32;1.52;;;0.80;;
49852;SDS011;35751;48.072;11.688;2022-09-09T16:48:59;1.58;;;0.90;;
49852;SDS011;35751;48.072;11.688;2022-09-09T16:51:27;1.48;;;0.80;;
49852;SDS011;35751;48.072;11.688;2022-09-09T16:53:54;0.73;;;0.70;;
49852;SDS011;35751;48.072;11.688;2022-09-09T16:56:21;1.50;;;0.85;;
49852;SDS011;35751;48.072;11.688;2022-09-09T16:58:51;1.63;;;1.02;;
49852;SDS011;35751;48.072;11.688;2022-09-09T17:01:20;3.60;;;0.88;;
49852;SDS011;35751;48.072;11.688;2022-09-09T17:03:55;2.15;;;0.80;;